sensor_id;sensor_type;location;lat;lon;timestamp;pressure;altitude;pressure_sealevel;temperature;humidity
84022;BME280;74108;48.636;9.492;2023-12-22T00:01:50;96503.22;;;7.34;83.80
84022;BME280;74108;48.636;9.492;2023-12-22T00:04:16;96501.38;;;7.39;84.88
84022;BME280;74108;48.636;9.492;2023-12-22T00:06:41;96519.88;;;7.38;83.49
84022;BME280;74108;48.636;9.492;2023-12-22T00:09:07;96520.66;;;7.28;85.56
84022;BME280;74108;48.636;9.492;2023-12-22T00:11:32;96504.25;;;7.23;86.25
84022;BME280;74108;48.636;9.492;2023-12-22T00:13:57;96498.50;;;7.26;85.21
84022;BME280;74108;48.636;9.492;2023-12-22T00:16:23;96504.50;;;7.26;85.52
84022;BME280;74108;48.636;9.492;2023-12-22T00:18:48;96504.50;;;7.26;86.24
84022;BME280;74108;48.636;9.492;2023-12-22T00:21:13;96499.28;;;7.31;86.32
84022;BME280;74108;48.636;9.492;2023-12-22T00:23:39;96503.69;;;7.21;86.88
84022;BME280;74108;48.636;9.492;2023-12-22T00:26:07;96515.19;;;7.25;86.61
84022;BME280;74108;48.636;9.492;2023-12-22T00:28:33;96519.31;;;7.21;87.34
84022;BME280;74108;48.636;9.492;2023-12-22T00:30:58;96506.81;;;7.18;88.10
84022;BME280;74108;48.636;9.492;2023-12-22T00:33:24;96506.75;;;7.02;88.88
84022;BME280;74108;48.636;9.492;2023-12-22T00:35:49;96527.91;;;7.11;89.01
84022;BME280;74108;48.636;9.492;2023-12-22T00:38:15;96524.53;;;7.16;89.11
84022;BME280;74108;48.636;9.492;2023-12-22T00:40:40;96504.69;;;7.09;89.47
84022;BME280;74108;48.636;9.492;2023-12-22T00:43:05;96517.75;;;7.20;90.20
84022;BME280;74108;48.636;9.492;2023-12-22T00:45:31;96522.19;;;7.24;89.21
84022;BME280;74108;48.636;9.492;2023-12-22T00:47:56;96499.56;;;7.25;88.67
84022;BME280;74108;48.636;9.492;2023-12-22T00:50:21;96507.41;;;7.50;87.08
84022;BME280;74108;48.636;9.492;2023-12-22T00:52:47;96503.50;;;7.67;85.34
84022;BME280;74108;48.636;9.492;2023-12-22T00:55:12;96504.28;;;7.68;84.99
84022;BME280;74108;48.636;9.492;2023-12-22T00:57:37;96496.19;;;7.69;84.77
84022;BME280;74108;48.636;9.492;2023-12-22T01:00:03;96501.69;;;7.73;85.34
84022;BME280;74108;48.636;9.492;2023-12-22T01:02:30;96552.53;;;7.80;85.06
84022;BME280;74108;48.636;9.492;2023-12-22T01:04:55;96565.81;;;7.69;84.97
84022;BME280;74108;48.636;9.492;2023-12-22T01:07:20;96583.81;;;7.70;85.99
84022;BME280;74108;48.636;9.492;2023-12-22T01:09:46;96591.66;;;7.75;86.10
84022;BME280;74108;48.636;9.492;2023-12-22T01:12:11;96585.88;;;7.63;86.65
84022;BME280;74108;48.636;9.492;2023-12-22T01:14:37;96570.25;;;7.63;87.22
84022;BME280;74108;48.636;9.492;2023-12-22T01:17:02;96556.16;;;7.64;86.76
84022;BME280;74108;48.636;9.492;2023-12-22T01:19:27;96577.56;;;7.66;86.43
84022;BME280;74108;48.636;9.492;2023-12-22T01:21:53;96571.78;;;7.64;87.08
84022;BME280;74108;48.636;9.492;2023-12-22T01:24:18;96560.84;;;7.62;86.65
84022;BME280;74108;48.636;9.492;2023-12-22T01:26:44;96554.09;;;7.76;87.09
84022;BME280;74108;48.636;9.492;2023-12-22T01:29:09;96556.16;;;7.64;86.83
84022;BME280;74108;48.636;9.492;2023-12-22T01:31:35;96560.84;;;7.67;86.01
84022;BME280;74108;48.636;9.492;2023-12-22T01:34:00;96542.63;;;7.57;85.80
84022;BME280;74108;48.636;9.492;2023-12-22T01:36:25;96553.78;;;7.58;83.79
84022;BME280;74108;48.636;9.492;2023-12-22T01:38:51;96554.84;;;7.57;84.52
84022;BME280;74108;48.636;9.492;2023-12-22T01:41:16;96562.13;;;7.60;83.02
84022;BME280;74108;48.636;9.492;2023-12-22T01:43:41;96547.06;;;7.62;83.99
84022;BME280;74108;48.636;9.492;2023-12-22T01:46:07;96561.63;;;7.63;81.83
84022;BME280;74108;48.636;9.492;2023-12-22T01:48:33;96561.09;;;7.56;82.33
84022;BME280;74108;48.636;9.492;2023-12-22T01:51:01;96548.84;;;7.51;82.85
84022;BME280;74108;48.636;9.492;2023-12-22T01:53:28;96555.66;;;7.57;81.71
84022;BME280;74108;48.636;9.492;2023-12-22T01:55:55;96570.75;;;7.60;81.59
84022;BME280;74108;48.636;9.492;2023-12-22T01:58:23;96559.28;;;7.56;81.30
84022;BME280;74108;48.636;9.492;2023-12-22T02:00:49;96584.84;;;7.59;81.38
84022;BME280;74108;48.636;9.492;2023-12-22T02:03:15;96586.38;;;7.60;81.09
84022;BME280;74108;48.636;9.492;2023-12-22T02:05:42;96590.56;;;7.61;81.09
84022;BME280;74108;48.636;9.492;2023-12-22T02:08:09;96586.13;;;7.67;79.65
84022;BME280;74108;48.636;9.492;2023-12-22T02:10:34;96561.06;;;7.51;80.47
84022;BME280;74108;48.636;9.492;2023-12-22T02:13:00;96569.19;;;7.64;79.10
84022;BME280;74108;48.636;9.492;2023-12-22T02:15:25;96584.03;;;7.59;78.58
84022;BME280;74108;48.636;9.492;2023-12-22T02:18:06;96581.97;;;7.66;78.55
84022;BME280;74108;48.636;9.492;2023-12-22T02:20:32;96580.69;;;7.68;78.82
84022;BME280;74108;48.636;9.492;2023-12-22T02:22:57;96579.63;;;7.69;76.93
84022;BME280;74108;48.636;9.492;2023-12-22T02:25:23;96590.59;;;7.76;76.80
84022;BME280;74108;48.636;9.492;2023-12-22T02:27:52;96580.16;;;7.66;77.01
84022;BME280;74108;48.636;9.492;2023-12-22T02:33:07;96584.59;;;7.71;75.52
84022;BME280;74108;48.636;9.492;2023-12-22T02:35:37;96603.09;;;7.69;77.07
84022;BME280;74108;48.636;9.492;2023-12-22T02:38:04;96594.75;;;7.67;75.54
84022;BME280;74108;48.636;9.492;2023-12-22T02:40:31;96586.13;;;7.67;75.22
84022;BME280;74108;48.636;9.492;2023-12-22T02:42:57;96577.28;;;7.68;74.43
84022;BME280;74108;48.636;9.492;2023-12-22T02:45:22;96587.47;;;7.74;73.80
84022;BME280;74108;48.636;9.492;2023-12-22T02:47:48;96577.81;;;7.75;73.31
84022;BME280;74108;48.636;9.492;2023-12-22T02:50:15;96586.66;;;7.74;73.83
84022;BME280;74108;48.636;9.492;2023-12-22T02:52:41;96594.50;;;7.74;74.10
84022;BME280;74108;48.636;9.492;2023-12-22T02:55:06;96576.75;;;7.61;75.65
84022;BME280;74108;48.636;9.492;2023-12-22T02:57:32;96590.31;;;7.63;72.82
84022;BME280;74108;48.636;9.492;2023-12-22T02:59:57;96585.66;;;7.75;72.93
84022;BME280;74108;48.636;9.492;2023-12-22T03:02:23;96566.88;;;7.78;72.50
84022;BME280;74108;48.636;9.492;2023-12-22T03:04:49;96544.72;;;7.75;72.66
84022;BME280;74108;48.636;9.492;2023-12-22T03:07:14;96557.47;;;7.77;73.51
84022;BME280;74108;48.636;9.492;2023-12-22T03:09:41;96565.81;;;7.79;73.10
84022;BME280;74108;48.636;9.492;2023-12-22T03:12:07;96559.81;;;7.78;74.05
84022;BME280;74108;48.636;9.492;2023-12-22T03:14:33;96558.50;;;7.76;73.58
84022;BME280;74108;48.636;9.492;2023-12-22T03:16:59;96554.09;;;7.82;73.41
84022;BME280;74108;48.636;9.492;2023-12-22T03:19:24;96544.97;;;7.84;73.00
84022;BME280;74108;48.636;9.492;2023-12-22T03:21:50;96547.84;;;7.77;73.88
84022;BME280;74108;48.636;9.492;2023-12-22T03:24:16;96545.25;;;7.77;74.32
84022;BME280;74108;48.636;9.492;2023-12-22T03:26:43;96535.06;;;7.76;73.07
84022;BME280;74108;48.636;9.492;2023-12-22T03:29:09;96537.16;;;7.84;73.42
84022;BME280;74108;48.636;9.492;2023-12-22T03:31:34;96558.25;;;7.88;72.64
84022;BME280;74108;48.636;9.492;2023-12-22T03:34:00;96541.59;;;7.94;73.28
84022;BME280;74108;48.636;9.492;2023-12-22T03:36:25;96544.72;;;7.86;73.78
84022;BME280;74108;48.636;9.492;2023-12-22T03:38:50;96545.00;;;7.89;72.79
84022;BME280;74108;48.636;9.492;2023-12-22T03:41:16;96544.44;;;7.92;73.54
84022;BME280;74108;48.636;9.492;2023-12-22T03:43:41;96571.84;;;7.90;72.88
84022;BME280;74108;48.636;9.492;2023-12-22T03:46:07;96597.41;;;7.98;72.62
84022;BME280;74108;48.636;9.492;2023-12-22T03:48:32;96593.50;;;7.95;72.50
84022;BME280;74108;48.636;9.492;2023-12-22T03:50:58;96594.03;;;8.07;71.68
84022;BME280;74108;48.636;9.492;2023-12-22T03:53:23;96581.75;;;8.13;72.31
84022;BME280;74108;48.636;9.492;2023-12-22T03:55:48;96591.41;;;7.97;72.46
84022;BME280;74108;48.636;9.492;2023-12-22T03:58:14;96600.81;;;8.03;72.22
84022;BME280;74108;48.636;9.492;2023-12-22T04:00:39;96592.97;;;7.93;72.24
84022;BME280;74108;48.636;9.492;2023-12-22T04:03:05;96592.97;;;8.08;70.78
84022;BME280;74108;48.636;9.492;2023-12-22T04:05:30;96572.09;;;8.13;70.27
84022;BME280;74108;48.636;9.492;2023-12-22T04:07:55;96579.66;;;8.00;71.21
84022;BME280;74108;48.636;9.492;2023-12-22T04:10:21;96588.81;;;7.87;72.92
84022;BME280;74108;48.636;9.492;2023-12-22T04:12:46;96600.81;;;7.98;73.15
84022;BME280;74108;48.636;9.492;2023-12-22T04:15:12;96598.69;;;7.95;73.50
84022;BME280;74108;48.636;9.492;2023-12-22T04:17:38;96586.72;;;7.89;74.09
84022;BME280;74108;48.636;9.492;2023-12-22T04:20:04;96604.66;;;7.80;74.86
84022;BME280;74108;48.636;9.492;2023-12-22T04:22:30;96605.19;;;7.72;77.18
84022;BME280;74108;48.636;9.492;2023-12-22T04:24:55;96604.38;;;7.57;77.81
84022;BME280;74108;48.636;9.492;2023-12-22T04:27:21;96599.09;;;7.37;79.81
84022;BME280;74108;48.636;9.492;2023-12-22T04:29:46;96608.72;;;7.31;81.04
84022;BME280;74108;48.636;9.492;2023-12-22T04:32:11;96613.09;;;7.21;81.90
84022;BME280;74108;48.636;9.492;2023-12-22T04:34:37;96593.00;;;7.06;82.01
84022;BME280;74108;48.636;9.492;2023-12-22T04:37:02;96571.88;;;7.02;81.49
84022;BME280;74108;48.636;9.492;2023-12-22T04:39:27;96577.34;;;7.01;83.11
84022;BME280;74108;48.636;9.492;2023-12-22T04:41:53;96592.69;;;7.02;83.80
84022;BME280;74108;48.636;9.492;2023-12-22T04:44:18;96607.81;;;7.05;83.16
84022;BME280;74108;48.636;9.492;2023-12-22T04:46:43;96593.50;;;7.08;81.28
84022;BME280;74108;48.636;9.492;2023-12-22T04:49:09;96596.66;;;7.15;81.72
84022;BME280;74108;48.636;9.492;2023-12-22T04:51:34;96602.66;;;7.16;81.94
84022;BME280;74108;48.636;9.492;2023-12-22T04:53:59;96625.34;;;7.20;80.73
84022;BME280;74108;48.636;9.492;2023-12-22T04:56:26;96614.41;;;7.18;79.65
84022;BME280;74108;48.636;9.492;2023-12-22T04:58:51;96634.47;;;7.28;80.55
84022;BME280;74108;48.636;9.492;2023-12-22T05:01:17;96633.97;;;7.31;79.88
84022;BME280;74108;48.636;9.492;2023-12-22T05:03:43;96644.38;;;7.26;79.89
84022;BME280;74108;48.636;9.492;2023-12-22T05:06:08;96630.28;;;7.22;80.24
84022;BME280;74108;48.636;9.492;2023-12-22T05:08:33;96649.59;;;7.26;80.01
84022;BME280;74108;48.636;9.492;2023-12-22T05:10:59;96654.31;;;7.34;79.05
84022;BME280;74108;48.636;9.492;2023-12-22T05:13:25;96637.63;;;7.25;79.54
84022;BME280;74108;48.636;9.492;2023-12-22T05:15:50;96645.19;;;7.31;78.62
84022;BME280;74108;48.636;9.492;2023-12-22T05:18:17;96638.44;;;7.35;78.86
84022;BME280;74108;48.636;9.492;2023-12-22T05:20:42;96648.31;;;7.33;79.93
84022;BME280;74108;48.636;9.492;2023-12-22T05:23:08;96645.22;;;7.36;79.68
84022;BME280;74108;48.636;9.492;2023-12-22T05:25:34;96642.31;;;7.33;78.70
84022;BME280;74108;48.636;9.492;2023-12-22T05:27:59;96663.75;;;7.45;77.96
84022;BME280;74108;48.636;9.492;2023-12-22T05:30:25;96674.97;;;7.45;77.73
84022;BME280;74108;48.636;9.492;2023-12-22T05:32:50;96669.22;;;7.43;79.26
84022;BME280;74108;48.636;9.492;2023-12-22T05:35:15;96679.13;;;7.46;78.41
84022;BME280;74108;48.636;9.492;2023-12-22T05:37:41;96678.84;;;7.38;78.37
84022;BME280;74108;48.636;9.492;2023-12-22T05:40:07;96671.56;;;7.45;77.00
84022;BME280;74108;48.636;9.492;2023-12-22T05:42:32;96666.09;;;7.46;76.45
84022;BME280;74108;48.636;9.492;2023-12-22T05:44:58;96672.63;;;7.49;76.06
84022;BME280;74108;48.636;9.492;2023-12-22T05:47:23;96690.38;;;7.57;75.88
84022;BME280;74108;48.636;9.492;2023-12-22T05:49:49;96673.13;;;7.41;77.54
84022;BME280;74108;48.636;9.492;2023-12-22T05:52:14;96674.97;;;7.55;75.57
84022;BME280;74108;48.636;9.492;2023-12-22T05:54:39;96668.47;;;7.58;75.85
84022;BME280;74108;48.636;9.492;2023-12-22T05:57:05;96679.97;;;7.57;75.63
84022;BME280;74108;48.636;9.492;2023-12-22T05:59:32;96673.16;;;7.56;75.62
84022;BME280;74108;48.636;9.492;2023-12-22T06:01:58;96676.84;;;7.55;75.21
84022;BME280;74108;48.636;9.492;2023-12-22T06:04:25;96674.47;;;7.58;76.53
84022;BME280;74108;48.636;9.492;2023-12-22T06:06:50;96675.50;;;7.47;76.41
84022;BME280;74108;48.636;9.492;2023-12-22T06:09:15;96670.81;;;7.49;76.29
84022;BME280;74108;48.636;9.492;2023-12-22T06:11:42;96668.47;;;7.58;75.50
84022;BME280;74108;48.636;9.492;2023-12-22T06:14:07;96687.25;;;7.60;75.45
84022;BME280;74108;48.636;9.492;2023-12-22T06:16:33;96692.22;;;7.61;75.36
84022;BME280;74108;48.636;9.492;2023-12-22T06:18:58;96701.63;;;7.67;75.59
84022;BME280;74108;48.636;9.492;2023-12-22T06:21:24;96690.06;;;7.48;75.70
84022;BME280;74108;48.636;9.492;2023-12-22T06:23:50;96709.19;;;7.64;75.08
84022;BME280;74108;48.636;9.492;2023-12-22T06:26:15;96712.31;;;7.66;74.92
84022;BME280;74108;48.636;9.492;2023-12-22T06:28:40;96720.69;;;7.73;74.92
84022;BME280;74108;48.636;9.492;2023-12-22T06:31:06;96703.75;;;7.75;73.61
84022;BME280;74108;48.636;9.492;2023-12-22T06:33:32;96731.94;;;7.84;73.71
84022;BME280;74108;48.636;9.492;2023-12-22T06:35:57;96750.44;;;7.77;74.64
84022;BME280;74108;48.636;9.492;2023-12-22T06:38:23;96734.72;;;7.67;74.75
84022;BME280;74108;48.636;9.492;2023-12-22T06:40:48;96745.44;;;7.70;74.94
84022;BME280;74108;48.636;9.492;2023-12-22T06:43:14;96756.34;;;7.62;76.16
84022;BME280;74108;48.636;9.492;2023-12-22T06:45:40;96748.56;;;7.67;74.50
84022;BME280;74108;48.636;9.492;2023-12-22T06:48:06;96778.09;;;7.78;75.36
84022;BME280;74108;48.636;9.492;2023-12-22T06:50:31;96765.56;;;7.85;73.86
84022;BME280;74108;48.636;9.492;2023-12-22T06:52:57;96776.28;;;7.89;74.43
84022;BME280;74108;48.636;9.492;2023-12-22T06:55:23;96782.53;;;7.83;74.77
84022;BME280;74108;48.636;9.492;2023-12-22T06:57:48;96777.03;;;7.79;74.81
84022;BME280;74108;48.636;9.492;2023-12-22T07:00:15;96788.19;;;7.69;76.18
84022;BME280;74108;48.636;9.492;2023-12-22T07:02:40;96788.19;;;7.69;74.93
84022;BME280;74108;48.636;9.492;2023-12-22T07:07:34;96783.81;;;7.80;75.37
84022;BME280;74108;48.636;9.492;2023-12-22T07:10:00;96793.47;;;7.79;75.03
84022;BME280;74108;48.636;9.492;2023-12-22T07:12:25;96796.34;;;7.78;74.82
84022;BME280;74108;48.636;9.492;2023-12-22T07:14:50;96794.97;;;7.70;76.10
84022;BME280;74108;48.636;9.492;2023-12-22T07:17:16;96803.75;;;7.54;76.97
84022;BME280;74108;48.636;9.492;2023-12-22T07:19:41;96827.94;;;7.45;78.35
84022;BME280;74108;48.636;9.492;2023-12-22T07:22:07;96820.91;;;7.45;78.36
84022;BME280;74108;48.636;9.492;2023-12-22T07:24:32;96836.19;;;7.32;79.45
84022;BME280;74108;48.636;9.492;2023-12-22T07:26:57;96836.66;;;7.29;80.17
84022;BME280;74108;48.636;9.492;2023-12-22T07:29:23;96847.38;;;7.32;79.94
84022;BME280;74108;48.636;9.492;2023-12-22T07:31:48;96846.56;;;7.27;80.50
84022;BME280;74108;48.636;9.492;2023-12-22T07:34:13;96865.38;;;7.34;80.09
84022;BME280;74108;48.636;9.492;2023-12-22T07:36:40;96859.38;;;7.33;79.60
84022;BME280;74108;48.636;9.492;2023-12-22T07:39:05;96860.44;;;7.37;81.17
84022;BME280;74108;48.636;9.492;2023-12-22T07:41:32;96868.78;;;7.39;79.76
84022;BME280;74108;48.636;9.492;2023-12-22T07:43:57;96862.06;;;7.43;80.45
84022;BME280;74108;48.636;9.492;2023-12-22T07:46:22;96850.22;;;7.31;80.01
84022;BME280;74108;48.636;9.492;2023-12-22T07:48:48;96849.41;;;7.25;79.84
84022;BME280;74108;48.636;9.492;2023-12-22T07:51:14;96860.22;;;7.44;79.09
84022;BME280;74108;48.636;9.492;2023-12-22T07:53:39;96872.53;;;7.53;77.62
84022;BME280;74108;48.636;9.492;2023-12-22T07:56:05;96871.03;;;7.57;77.44
84022;BME280;74108;48.636;9.492;2023-12-22T07:58:31;96878.72;;;7.42;80.38
84022;BME280;74108;48.636;9.492;2023-12-22T08:00:58;96878.06;;;7.25;80.21
84022;BME280;74108;48.636;9.492;2023-12-22T08:03:23;96880.97;;;7.29;81.32
84022;BME280;74108;48.636;9.492;2023-12-22T08:05:49;96868.34;;;7.16;81.47
84022;BME280;74108;48.636;9.492;2023-12-22T08:08:14;96871.00;;;6.94;83.30
84022;BME280;74108;48.636;9.492;2023-12-22T08:10:40;96850.22;;;6.99;83.06
84022;BME280;74108;48.636;9.492;2023-12-22T08:13:06;96855.66;;;6.92;84.04
84022;BME280;74108;48.636;9.492;2023-12-22T08:15:31;96868.34;;;6.89;84.35
84022;BME280;74108;48.636;9.492;2023-12-22T08:17:57;96867.63;;;6.93;84.40
84022;BME280;74108;48.636;9.492;2023-12-22T08:20:23;96865.16;;;6.82;86.01
84022;BME280;74108;48.636;9.492;2023-12-22T08:22:49;96861.59;;;6.88;86.27
84022;BME280;74108;48.636;9.492;2023-12-22T08:25:15;96856.31;;;6.83;85.58
84022;BME280;74108;48.636;9.492;2023-12-22T08:27:41;96862.31;;;6.83;86.74
84022;BME280;74108;48.636;9.492;2023-12-22T08:30:08;96867.63;;;6.93;85.69
84022;BME280;74108;48.636;9.492;2023-12-22T08:32:34;96858.97;;;6.88;86.97
84022;BME280;74108;48.636;9.492;2023-12-22T08:34:59;96858.13;;;6.82;86.79
84022;BME280;74108;48.636;9.492;2023-12-22T08:37:24;96850.72;;;6.69;87.73
84022;BME280;74108;48.636;9.492;2023-12-22T08:39:50;96855.72;;;6.76;88.06
84022;BME280;74108;48.636;9.492;2023-12-22T08:42:16;96849.75;;;6.75;86.92
84022;BME280;74108;48.636;9.492;2023-12-22T08:44:42;96854.88;;;6.70;87.42
84022;BME280;74108;48.636;9.492;2023-12-22T08:47:07;96858.41;;;6.81;86.26
84022;BME280;74108;48.636;9.492;2023-12-22T08:49:32;96862.13;;;6.90;86.72
84022;BME280;74108;48.636;9.492;2023-12-22T08:51:58;96852.25;;;6.92;85.74
84022;BME280;74108;48.636;9.492;2023-12-22T08:54:23;96839.34;;;7.07;84.56
84022;BME280;74108;48.636;9.492;2023-12-22T08:56:48;96862.03;;;7.12;85.68
84022;BME280;74108;48.636;9.492;2023-12-22T08:59:14;96856.66;;;7.23;85.20
84022;BME280;74108;48.636;9.492;2023-12-22T09:01:39;96862.19;;;7.27;84.30
84022;BME280;74108;48.636;9.492;2023-12-22T09:04:06;96862.47;;;7.30;84.11
84022;BME280;74108;48.636;9.492;2023-12-22T09:06:31;96885.63;;;7.27;84.59
84022;BME280;74108;48.636;9.492;2023-12-22T09:08:57;96885.38;;;7.28;84.74
84022;BME280;74108;48.636;9.492;2023-12-22T09:11:24;96900.03;;;7.34;84.10
84022;BME280;74108;48.636;9.492;2023-12-22T09:13:51;96875.91;;;7.17;85.64
84022;BME280;74108;48.636;9.492;2023-12-22T09:16:21;96890.09;;;7.31;83.65
84022;BME280;74108;48.636;9.492;2023-12-22T09:18:47;96891.34;;;7.24;85.79
84022;BME280;74108;48.636;9.492;2023-12-22T09:21:12;96881.44;;;7.26;86.20
84022;BME280;74108;48.636;9.492;2023-12-22T09:23:37;96883.47;;;7.19;85.05
84022;BME280;74108;48.636;9.492;2023-12-22T09:26:03;96870.44;;;7.19;83.82
84022;BME280;74108;48.636;9.492;2023-12-22T09:28:30;96878.88;;;7.31;83.94
84022;BME280;74108;48.636;9.492;2023-12-22T09:30:55;96868.03;;;7.39;83.42
84022;BME280;74108;48.636;9.492;2023-12-22T09:33:20;96886.63;;;7.52;82.23
84022;BME280;74108;48.636;9.492;2023-12-22T09:35:47;96887.66;;;7.51;81.56
84022;BME280;74108;48.636;9.492;2023-12-22T09:38:13;96901.84;;;7.65;80.01
84022;BME280;74108;48.636;9.492;2023-12-22T09:40:39;96890.09;;;7.63;80.04
84022;BME280;74108;48.636;9.492;2023-12-22T09:43:06;96917.78;;;7.74;79.42
84022;BME280;74108;48.636;9.492;2023-12-22T09:45:33;96912.31;;;7.70;79.30
84022;BME280;74108;48.636;9.492;2023-12-22T09:48:00;96920.22;;;7.86;77.97
84022;BME280;74108;48.636;9.492;2023-12-22T09:50:27;96911.13;;;7.88;77.01
84022;BME280;74108;48.636;9.492;2023-12-22T09:52:52;96919.44;;;7.85;79.29
84022;BME280;74108;48.636;9.492;2023-12-22T09:55:18;96914.19;;;7.80;79.59
84022;BME280;74108;48.636;9.492;2023-12-22T09:57:47;96917.47;;;7.65;80.06
84022;BME280;74108;48.636;9.492;2023-12-22T10:00:14;96914.69;;;7.77;79.33
84022;BME280;74108;48.636;9.492;2023-12-22T10:02:40;96910.84;;;7.85;78.27
84022;BME280;74108;48.636;9.492;2023-12-22T10:05:07;96891.25;;;7.82;78.85
84022;BME280;74108;48.636;9.492;2023-12-22T10:07:32;96900.97;;;7.92;77.40
84022;BME280;74108;48.636;9.492;2023-12-22T10:09:59;96893.16;;;7.92;78.65
84022;BME280;74108;48.636;9.492;2023-12-22T10:12:27;96890.50;;;7.87;79.03
84022;BME280;74108;48.636;9.492;2023-12-22T10:14:53;96898.56;;;7.85;79.84
84022;BME280;74108;48.636;9.492;2023-12-22T10:17:19;96889.91;;;7.74;79.67
84022;BME280;74108;48.636;9.492;2023-12-22T10:19:44;96875.09;;;7.80;78.82
84022;BME280;74108;48.636;9.492;2023-12-22T10:22:10;96862.06;;;7.80;80.53
84022;BME280;74108;48.636;9.492;2023-12-22T10:24:42;96860.56;;;7.94;76.47
84022;BME280;74108;48.636;9.492;2023-12-22T10:27:08;96868.84;;;7.86;78.89
84022;BME280;74108;48.636;9.492;2023-12-22T10:29:34;96867.25;;;7.80;78.74
84022;BME280;74108;48.636;9.492;2023-12-22T10:32:01;96875.09;;;7.85;79.43
84022;BME280;74108;48.636;9.492;2023-12-22T10:34:26;96865.69;;;7.79;79.08
84022;BME280;74108;48.636;9.492;2023-12-22T10:36:52;96861.75;;;7.76;80.32
84022;BME280;74108;48.636;9.492;2023-12-22T10:39:17;96846.91;;;7.77;79.51
84022;BME280;74108;48.636;9.492;2023-12-22T10:41:43;96840.97;;;7.87;78.57
84022;BME280;74108;48.636;9.492;2023-12-22T10:44:09;96841.94;;;7.80;79.59
84022;BME280;74108;48.636;9.492;2023-12-22T10:46:34;96838.63;;;7.90;78.35
84022;BME280;74108;48.636;9.492;2023-12-22T10:49:01;96833.94;;;7.92;79.51
84022;BME280;74108;48.636;9.492;2023-12-22T10:51:28;96839.69;;;7.89;78.81
84022;BME280;74108;48.636;9.492;2023-12-22T10:53:57;96840.22;;;7.96;79.04
84022;BME280;74108;48.636;9.492;2023-12-22T10:56:23;96829.78;;;7.91;79.82
84022;BME280;74108;48.636;9.492;2023-12-22T10:58:48;96818.06;;;8.04;78.59
84022;BME280;74108;48.636;9.492;2023-12-22T11:01:15;96807.91;;;8.02;79.22
84022;BME280;74108;48.636;9.492;2023-12-22T11:03:44;96804.00;;;8.05;78.08
84022;BME280;74108;48.636;9.492;2023-12-22T11:06:14;96802.44;;;8.09;78.29
84022;BME280;74108;48.636;9.492;2023-12-22T11:08:43;96795.66;;;8.03;78.73
84022;BME280;74108;48.636;9.492;2023-12-22T11:11:26;96799.84;;;8.09;78.07
84022;BME280;74108;48.636;9.492;2023-12-22T11:13:56;96796.97;;;8.05;78.99
84022;BME280;74108;48.636;9.492;2023-12-22T11:16:24;96787.00;;;7.97;79.54
84022;BME280;74108;48.636;9.492;2023-12-22T11:18:49;96792.75;;;7.99;78.85
84022;BME280;74108;48.636;9.492;2023-12-22T11:21:17;96790.41;;;7.98;79.10
84022;BME280;74108;48.636;9.492;2023-12-22T11:23:44;96783.31;;;7.88;81.40
84022;BME280;74108;48.636;9.492;2023-12-22T11:26:10;96795.84;;;7.86;82.19
84022;BME280;74108;48.636;9.492;2023-12-22T11:28:38;96776.00;;;7.80;81.82
84022;BME280;74108;48.636;9.492;2023-12-22T11:31:07;96773.63;;;7.78;82.83
84022;BME280;74108;48.636;9.492;2023-12-22T11:33:34;96778.84;;;7.73;82.72
84022;BME280;74108;48.636;9.492;2023-12-22T11:36:03;96772.25;;;7.61;83.77
84022;BME280;74108;48.636;9.492;2023-12-22T11:38:29;96747.50;;;7.63;83.40
84022;BME280;74108;48.636;9.492;2023-12-22T11:40:54;96771.16;;;7.52;83.63
84022;BME280;74108;48.636;9.492;2023-12-22T11:43:21;96769.56;;;7.46;84.61
84022;BME280;74108;48.636;9.492;2023-12-22T11:45:49;96761.75;;;7.46;85.22
84022;BME280;74108;48.636;9.492;2023-12-22T11:48:15;96762.81;;;7.50;84.83
84022;BME280;74108;48.636;9.492;2023-12-22T11:50:41;96761.50;;;7.47;85.92
84022;BME280;74108;48.636;9.492;2023-12-22T11:56:08;96747.59;;;7.32;86.57
84022;BME280;74108;48.636;9.492;2023-12-22T11:58:34;96745.25;;;7.35;87.85
84022;BME280;74108;48.636;9.492;2023-12-22T12:01:01;96744.47;;;7.35;87.05
84022;BME280;74108;48.636;9.492;2023-12-22T12:03:30;96725.16;;;7.31;87.90
84022;BME280;74108;48.636;9.492;2023-12-22T12:08:58;96727.25;;;7.29;88.36
84022;BME280;74108;48.636;9.492;2023-12-22T12:14:29;96720.25;;;7.39;87.30
84022;BME280;74108;48.636;9.492;2023-12-22T12:17:03;96704.38;;;7.41;86.96
84022;BME280;74108;48.636;9.492;2023-12-22T12:19:31;96710.09;;;7.38;87.75
84022;BME280;74108;48.636;9.492;2023-12-22T12:21:56;96692.41;;;7.45;86.56
84022;BME280;74108;48.636;9.492;2023-12-22T12:24:22;96697.88;;;7.48;86.23
84022;BME280;74108;48.636;9.492;2023-12-22T12:26:47;96688.03;;;7.50;87.73
84022;BME280;74108;48.636;9.492;2023-12-22T12:29:13;96679.66;;;7.53;87.53
84022;BME280;74108;48.636;9.492;2023-12-22T12:31:41;96686.69;;;7.53;87.01
84022;BME280;74108;48.636;9.492;2023-12-22T12:34:07;96687.47;;;7.43;87.31
84022;BME280;74108;48.636;9.492;2023-12-22T12:36:35;96675.00;;;7.50;86.97
84022;BME280;74108;48.636;9.492;2023-12-22T12:39:09;96680.44;;;7.49;87.73
84022;BME280;74108;48.636;9.492;2023-12-22T12:41:41;96678.84;;;7.43;87.50
84022;BME280;74108;48.636;9.492;2023-12-22T12:44:07;96668.72;;;7.51;87.13
84022;BME280;74108;48.636;9.492;2023-12-22T12:46:35;96666.34;;;7.45;87.55
84022;BME280;74108;48.636;9.492;2023-12-22T12:51:29;96654.91;;;7.46;87.41
84022;BME280;74108;48.636;9.492;2023-12-22T12:53:55;96658.53;;;7.45;87.68
84022;BME280;74108;48.636;9.492;2023-12-22T12:56:21;96657.22;;;7.42;87.31
84022;BME280;74108;48.636;9.492;2023-12-22T12:58:46;96654.41;;;7.59;86.71
84022;BME280;74108;48.636;9.492;2023-12-22T13:01:12;96661.44;;;7.58;86.95
84022;BME280;74108;48.636;9.492;2023-12-22T13:04:10;96654.94;;;7.56;87.60
84022;BME280;74108;48.636;9.492;2023-12-22T13:06:49;96641.66;;;7.62;86.81
84022;BME280;74108;48.636;9.492;2023-12-22T13:09:16;96656.53;;;7.62;86.37
84022;BME280;74108;48.636;9.492;2023-12-22T13:11:42;96647.91;;;7.61;86.97
84022;BME280;74108;48.636;9.492;2023-12-22T13:14:22;96641.66;;;7.67;86.38
84022;BME280;74108;48.636;9.492;2023-12-22T13:16:50;96631.50;;;7.66;86.87
84022;BME280;74108;48.636;9.492;2023-12-22T13:19:16;96645.81;;;7.58;87.08
84022;BME280;74108;48.636;9.492;2023-12-22T13:21:41;96647.41;;;7.69;86.32